Boxborough, Massachusetts
Current Conditions -  °F | °C
As of 12:56 AM on Thursday 23 Oct 2014 (Local Time) from KBED Reporting Station
Moderate Rain Moderate Rain  
Wind Chill: 42°   Ceiling: 1100
Heat Index: 49°   Visibility: 4mi
Dew Point: 48°   Wind: 20mph
Humidity: 97%   Direction: 20°NNE
Pressure: 29.78"   Gusts: 30mph
Location:  42.48°N, 71.52°W
Report Text: KBED 230456Z AUTO 02017G26KT 4SM RA BR OVC011 09/09 A2978 RMK AO2 PK WND 02038/0445 SLP098 P0008 T00940089 401170089 TSNO
Loading
Personal Weather Stations






























Interactive Weather Map
Tropical Storm Tracking
New forecast layout! Learn more

10-Day Weather Forecast

Advertisements
Track Severe Weather on mobile